createdAt,value
2023-02-02T00:00:55.421Z,11.83
2023-02-02T00:03:22.389Z,9.20
2023-02-02T00:05:54.034Z,8.30
2023-02-02T00:08:21.945Z,8.23
2023-02-02T00:10:50.640Z,10.60
2023-02-02T00:13:17.675Z,5.77
2023-02-02T00:15:44.610Z,6.00
2023-02-02T00:18:11.439Z,7.33
2023-02-02T00:20:38.453Z,8.30
2023-02-02T00:23:05.372Z,14.20
2023-02-02T00:25:32.742Z,7.30
2023-02-02T00:27:59.624Z,6.97
2023-02-02T00:30:26.527Z,8.83
2023-02-02T00:32:53.440Z,8.47
2023-02-02T00:35:20.674Z,10.43
2023-02-02T00:37:47.727Z,7.43
2023-02-02T00:40:14.719Z,12.37
2023-02-02T00:42:41.591Z,8.23
2023-02-02T00:45:16.142Z,9.97
2023-02-02T00:47:45.535Z,7.83
2023-02-02T00:50:21.717Z,12.33
2023-02-02T00:52:49.188Z,7.77
2023-02-02T00:55:16.981Z,9.03
2023-02-02T00:57:46.739Z,8.03
2023-02-02T01:00:16.319Z,7.73
2023-02-02T01:02:43.584Z,8.90
2023-02-02T01:05:12.444Z,8.70
2023-02-02T01:07:40.299Z,11.13
2023-02-02T01:10:10.963Z,8.17
2023-02-02T01:12:37.837Z,5.53
2023-02-02T01:15:05.135Z,10.33
2023-02-02T01:17:32.080Z,7.77
2023-02-02T01:19:59.000Z,8.87
2023-02-02T01:22:26.438Z,14.27
2023-02-02T01:24:53.357Z,7.90
2023-02-02T01:27:20.207Z,11.63
2023-02-02T01:29:47.062Z,10.60
2023-02-02T01:32:13.937Z,11.30
2023-02-02T01:34:41.933Z,8.73
2023-02-02T01:37:09.986Z,7.87
2023-02-02T01:39:37.687Z,9.67
2023-02-02T01:42:13.115Z,9.17
2023-02-02T01:45:01.456Z,10.23
2023-02-02T01:47:33.329Z,10.47
2023-02-02T01:50:00.784Z,6.83
2023-02-02T01:52:30.711Z,13.73
2023-02-02T01:55:04.601Z,6.63
2023-02-02T01:57:45.922Z,7.27
2023-02-02T02:00:15.673Z,12.73
2023-02-02T02:02:48.147Z,21.00
2023-02-02T02:05:21.546Z,11.07
2023-02-02T02:07:51.240Z,13.33
2023-02-02T02:10:18.833Z,12.60
2023-02-02T02:12:48.178Z,14.73
2023-02-02T02:15:50.684Z,11.43
2023-02-02T02:18:31.052Z,7.53
2023-02-02T02:21:56.289Z,12.40
2023-02-02T02:25:20.957Z,12.77
2023-02-02T02:28:16.867Z,18.23
2023-02-02T02:31:19.297Z,11.60
2023-02-02T02:33:49.073Z,9.93
2023-02-02T02:36:43.726Z,10.00
2023-02-02T02:39:25.509Z,8.47
2023-02-02T02:41:58.006Z,7.90
2023-02-02T02:44:26.737Z,10.83
2023-02-02T02:46:54.345Z,12.57
2023-02-02T02:49:21.227Z,12.20
2023-02-02T02:51:52.426Z,9.23
2023-02-02T02:54:27.953Z,9.43
2023-02-02T02:57:03.980Z,10.20
2023-02-02T02:59:57.409Z,8.83
2023-02-02T03:02:43.642Z,9.43
2023-02-02T03:05:19.457Z,9.17
2023-02-02T03:08:06.519Z,14.93
2023-02-02T03:10:35.266Z,10.23
2023-02-02T03:13:06.387Z,7.03
2023-02-02T03:15:33.327Z,8.53
2023-02-02T03:18:00.775Z,7.03
2023-02-02T03:20:27.693Z,8.70
2023-02-02T03:22:54.511Z,8.10
2023-02-02T03:25:21.398Z,12.20
2023-02-02T03:27:48.295Z,12.90
2023-02-02T03:30:15.615Z,10.23
2023-02-02T03:32:42.691Z,6.47
2023-02-02T03:35:09.967Z,8.63
2023-02-02T03:37:36.889Z,9.77
2023-02-02T03:40:04.917Z,9.43
2023-02-02T03:42:31.746Z,10.27
2023-02-02T03:44:58.568Z,10.93
2023-02-02T03:47:29.772Z,8.33
2023-02-02T03:49:56.828Z,8.90
2023-02-02T03:52:24.162Z,9.03
2023-02-02T03:54:51.486Z,12.93
2023-02-02T03:57:18.703Z,5.83
2023-02-02T03:59:45.562Z,10.93
2023-02-02T04:02:12.529Z,10.60
2023-02-02T04:04:39.392Z,11.03
2023-02-02T04:07:06.252Z,7.13
2023-02-02T04:09:33.213Z,14.50
2023-02-02T04:12:00.044Z,11.37
2023-02-02T04:14:26.986Z,10.70
2023-02-02T04:16:53.859Z,12.53
2023-02-02T04:19:20.700Z,8.83
2023-02-02T04:21:47.603Z,9.27
2023-02-02T04:24:15.468Z,13.10
2023-02-02T04:26:42.844Z,10.73
2023-02-02T04:29:09.868Z,7.83
2023-02-02T04:31:36.834Z,6.43
2023-02-02T04:34:03.762Z,10.03
2023-02-02T04:36:30.683Z,6.97
2023-02-02T04:38:57.590Z,4.97
2023-02-02T04:41:24.986Z,11.40
2023-02-02T04:43:51.895Z,10.43
2023-02-02T04:46:19.119Z,10.23
2023-02-02T04:48:49.334Z,4.00
2023-02-02T04:51:16.388Z,8.47
2023-02-02T04:53:43.212Z,9.93
2023-02-02T04:56:14.048Z,10.57
2023-02-02T04:58:41.264Z,8.67
2023-02-02T05:01:11.700Z,10.93
2023-02-02T05:03:39.238Z,6.27
2023-02-02T05:06:06.700Z,6.00
2023-02-02T05:08:34.242Z,14.57
2023-02-02T05:11:01.521Z,8.20
2023-02-02T05:13:28.399Z,11.30
2023-02-02T05:15:55.466Z,9.80
2023-02-02T05:18:22.673Z,7.73
2023-02-02T05:20:49.496Z,5.17
2023-02-02T05:23:16.346Z,10.13
2023-02-02T05:25:43.181Z,6.83
2023-02-02T05:28:10.247Z,9.17
2023-02-02T05:30:39.881Z,11.43
2023-02-02T05:33:06.785Z,7.50
2023-02-02T05:35:33.650Z,8.87
2023-02-02T05:38:00.477Z,9.53
2023-02-02T05:40:27.415Z,6.30
2023-02-02T05:42:54.283Z,6.57
2023-02-02T05:45:21.414Z,11.37
2023-02-02T05:47:48.283Z,11.33
2023-02-02T05:50:15.505Z,7.97
2023-02-02T05:52:43.574Z,11.53
2023-02-02T05:55:10.970Z,9.53
2023-02-02T05:57:37.937Z,7.23
2023-02-02T06:00:05.978Z,5.93
2023-02-02T06:02:32.888Z,12.43
2023-02-02T06:04:59.722Z,10.47
2023-02-02T06:07:26.544Z,7.57
2023-02-02T06:09:53.383Z,9.97
2023-02-02T06:12:20.255Z,5.67
2023-02-02T06:14:47.137Z,7.57
2023-02-02T06:17:14.077Z,8.27
2023-02-02T06:19:41.006Z,4.97
2023-02-02T06:22:07.855Z,6.40
2023-02-02T06:24:34.782Z,5.60
2023-02-02T06:27:01.664Z,7.17
2023-02-02T06:29:28.574Z,3.90
2023-02-02T06:31:55.573Z,7.10
2023-02-02T06:34:22.572Z,10.40
2023-02-02T06:36:49.407Z,11.07
2023-02-02T06:39:16.287Z,8.17
2023-02-02T06:41:46.631Z,9.07
2023-02-02T06:44:15.484Z,6.00
2023-02-02T06:46:43.142Z,7.30
2023-02-02T06:49:09.999Z,8.50
2023-02-02T06:51:37.010Z,9.67
2023-02-02T06:54:04.211Z,4.10
2023-02-02T06:56:31.282Z,5.30
2023-02-02T06:58:58.115Z,5.27
2023-02-02T07:01:25.092Z,10.13
2023-02-02T07:03:52.422Z,5.70
2023-02-02T07:06:25.382Z,7.97
2023-02-02T07:09:01.610Z,5.37
2023-02-02T07:11:30.867Z,5.87
2023-02-02T07:13:58.255Z,4.40
2023-02-02T07:16:25.145Z,5.43
2023-02-02T07:18:52.018Z,7.63
2023-02-02T07:21:24.369Z,6.87
2023-02-02T07:23:51.849Z,4.73
2023-02-02T07:26:19.964Z,7.20
2023-02-02T07:28:47.253Z,8.83
2023-02-02T07:31:25.766Z,7.00
2023-02-02T07:33:53.730Z,5.20
2023-02-02T07:36:23.487Z,4.10
2023-02-02T07:38:54.326Z,6.77
2023-02-02T07:41:21.907Z,4.67
2023-02-02T07:43:49.643Z,4.47
2023-02-02T07:46:17.689Z,5.53
2023-02-02T07:48:44.809Z,3.30
2023-02-02T07:51:17.105Z,3.90
2023-02-02T07:53:52.425Z,6.00
2023-02-02T07:56:25.018Z,5.13
2023-02-02T07:58:53.318Z,2.63
2023-02-02T08:01:22.996Z,4.17
2023-02-02T08:03:50.750Z,5.13
2023-02-02T08:06:23.494Z,7.40
2023-02-02T08:08:50.504Z,5.57
2023-02-02T08:11:20.147Z,5.67
2023-02-02T08:13:50.330Z,5.07
2023-02-02T08:16:17.796Z,6.03
2023-02-02T08:18:45.022Z,6.93
2023-02-02T08:21:12.476Z,4.80
2023-02-02T08:23:40.984Z,7.70
2023-02-02T08:26:16.925Z,7.50
2023-02-02T08:28:46.372Z,4.83
2023-02-02T08:31:17.158Z,9.17
2023-02-02T08:33:44.220Z,8.27
2023-02-02T08:36:19.412Z,4.93
2023-02-02T08:38:46.532Z,3.50
2023-02-02T08:41:15.821Z,7.13
2023-02-02T08:43:43.178Z,7.07
2023-02-02T08:46:12.398Z,6.10
2023-02-02T08:48:39.388Z,4.73
2023-02-02T08:51:07.694Z,7.67
2023-02-02T08:53:34.972Z,5.60
2023-02-02T08:56:04.564Z,6.10
2023-02-02T08:58:32.338Z,4.53
2023-02-02T09:01:37.591Z,4.47
2023-02-02T09:04:11.964Z,2.30
2023-02-02T09:06:41.109Z,4.40
2023-02-02T09:09:10.897Z,2.97
2023-02-02T09:11:38.266Z,4.83
2023-02-02T09:14:06.890Z,3.37
2023-02-02T09:16:35.232Z,4.03
2023-02-02T09:19:02.440Z,3.43
2023-02-02T09:21:29.436Z,5.43
2023-02-02T09:23:56.522Z,3.00
2023-02-02T09:26:27.006Z,4.20
2023-02-02T09:28:57.001Z,3.47
2023-02-02T09:31:25.172Z,6.57
2023-02-02T09:33:52.152Z,4.60
2023-02-02T09:36:21.876Z,4.93
2023-02-02T09:38:50.416Z,3.53
2023-02-02T09:41:40.982Z,3.10
2023-02-02T09:44:45.473Z,4.17
2023-02-02T09:47:18.248Z,3.27
2023-02-02T09:50:13.471Z,2.87
2023-02-02T09:52:53.480Z,6.03
2023-02-02T09:55:39.728Z,2.93
2023-02-02T09:58:27.711Z,4.57
2023-02-02T10:01:08.610Z,3.63
2023-02-02T10:04:15.979Z,5.10
2023-02-02T10:06:46.967Z,3.63
2023-02-02T10:09:29.291Z,4.87
2023-02-02T10:12:17.727Z,4.43
2023-02-02T10:14:53.738Z,4.57
2023-02-02T10:17:32.269Z,3.40
2023-02-02T10:20:26.372Z,4.43
2023-02-02T10:22:57.441Z,9.37
2023-02-02T10:25:27.883Z,4.27
2023-02-02T10:28:09.690Z,7.20
2023-02-02T10:30:44.361Z,6.90
2023-02-02T10:33:46.353Z,5.57
2023-02-02T10:36:30.397Z,5.63
2023-02-02T10:39:32.952Z,6.60
2023-02-02T10:42:05.780Z,7.43
2023-02-02T10:44:47.122Z,5.67
2023-02-02T10:47:33.362Z,5.33
2023-02-02T10:50:19.107Z,4.87
2023-02-02T10:53:01.896Z,7.07
2023-02-02T10:55:49.900Z,6.57
2023-02-02T10:58:26.384Z,6.00
2023-02-02T11:00:58.455Z,3.30
2023-02-02T11:03:29.040Z,3.63
2023-02-02T11:06:17.286Z,4.63
2023-02-02T11:08:47.540Z,4.27
2023-02-02T11:11:22.134Z,3.47
2023-02-02T11:13:58.316Z,4.93
2023-02-02T11:16:43.052Z,4.97
2023-02-02T11:19:19.855Z,3.33
2023-02-02T11:21:58.692Z,4.47
2023-02-02T11:24:29.545Z,5.50
2023-02-02T11:27:04.268Z,4.30
2023-02-02T11:29:40.226Z,5.43
2023-02-02T11:32:33.702Z,6.90
2023-02-02T11:35:20.991Z,3.70
2023-02-02T11:37:55.997Z,1.67
2023-02-02T11:40:36.628Z,3.13
2023-02-02T11:43:17.021Z,4.70
2023-02-02T11:45:45.694Z,4.13
2023-02-02T11:48:24.775Z,3.43
2023-02-02T11:50:54.851Z,5.20
2023-02-02T11:53:35.588Z,4.10
2023-02-02T11:56:32.452Z,1.53
2023-02-02T11:59:01.761Z,1.90
2023-02-02T12:01:39.824Z,3.60
2023-02-02T12:04:15.769Z,3.80
2023-02-02T12:06:42.998Z,1.40
2023-02-02T12:09:17.944Z,4.97
2023-02-02T12:12:15.764Z,3.93
2023-02-02T12:14:54.645Z,4.57
2023-02-02T12:17:31.749Z,5.10
2023-02-02T12:20:13.889Z,5.27
2023-02-02T12:22:46.466Z,6.63
2023-02-02T12:25:31.644Z,5.37
2023-02-02T12:28:10.483Z,3.57
2023-02-02T12:31:06.912Z,4.23
2023-02-02T12:33:59.936Z,4.60
2023-02-02T12:36:35.919Z,4.57
2023-02-02T12:39:22.639Z,3.60
2023-02-02T12:42:10.909Z,6.10
2023-02-02T12:44:44.038Z,4.93
2023-02-02T12:47:55.560Z,7.07
2023-02-02T12:50:42.769Z,4.60
2023-02-02T12:53:33.821Z,5.03
2023-02-02T12:56:15.509Z,3.97
2023-02-02T12:59:04.741Z,5.13
2023-02-02T13:01:43.294Z,5.60
2023-02-02T13:04:16.772Z,3.73
2023-02-02T13:07:01.977Z,7.60
2023-02-02T13:09:37.648Z,7.00
2023-02-02T13:12:09.311Z,4.13
2023-02-02T13:14:43.651Z,4.17
2023-02-02T13:17:17.570Z,5.57
2023-02-02T13:19:53.701Z,5.87
2023-02-02T13:22:36.444Z,7.97
2023-02-02T13:25:08.723Z,5.57
2023-02-02T13:27:39.099Z,5.53
2023-02-02T13:30:17.895Z,3.17
2023-02-02T13:32:47.087Z,5.87
2023-02-02T13:35:29.071Z,9.17
2023-02-02T13:38:05.074Z,5.50
2023-02-02T13:40:38.861Z,7.13
2023-02-02T13:43:40.045Z,11.57
2023-02-02T13:46:07.052Z,17.77
2023-02-02T13:48:58.666Z,12.13
2023-02-02T13:51:46.426Z,10.70
2023-02-02T13:54:32.020Z,8.20
2023-02-02T13:57:13.423Z,11.03
2023-02-02T14:00:05.799Z,7.60
2023-02-02T14:02:57.568Z,8.53
2023-02-02T14:05:38.945Z,7.23
2023-02-02T14:08:18.736Z,8.07
2023-02-02T14:10:54.679Z,4.93
2023-02-02T14:13:51.368Z,2.37
2023-02-02T14:16:44.089Z,2.87
2023-02-02T14:19:42.071Z,1.80
2023-02-02T14:22:09.224Z,2.17
2023-02-02T14:24:36.098Z,1.10
2023-02-02T14:27:28.672Z,3.57
2023-02-02T14:29:55.723Z,6.67
2023-02-02T14:32:29.439Z,7.37
2023-02-02T14:35:01.106Z,4.47
2023-02-02T14:37:31.190Z,4.60
2023-02-02T14:40:07.313Z,4.77
2023-02-02T14:43:20.270Z,6.63
2023-02-02T14:46:08.268Z,5.57
2023-02-02T14:48:35.484Z,4.50
2023-02-02T14:51:05.870Z,5.53
2023-02-02T14:53:38.567Z,5.30
2023-02-02T14:56:14.158Z,6.80
2023-02-02T14:59:16.261Z,6.43
2023-02-02T15:01:44.699Z,6.20
2023-02-02T15:04:21.473Z,7.07
2023-02-02T15:06:51.141Z,7.53
2023-02-02T15:09:22.511Z,10.10
2023-02-02T15:12:04.394Z,8.43
2023-02-02T15:14:41.400Z,9.87
2023-02-02T15:17:12.915Z,4.63
2023-02-02T15:19:42.523Z,13.87
2023-02-02T15:22:24.685Z,6.17
2023-02-02T15:24:53.144Z,6.47
2023-02-02T15:27:22.573Z,3.97
2023-02-02T15:29:56.762Z,5.43
2023-02-02T15:32:27.290Z,8.50
2023-02-02T15:35:07.913Z,5.30
2023-02-02T15:37:41.809Z,8.23
2023-02-02T15:40:16.083Z,6.97
2023-02-02T15:42:55.438Z,10.70
2023-02-02T15:45:28.340Z,9.83
2023-02-02T15:47:57.602Z,11.93
2023-02-02T15:50:25.023Z,8.00
2023-02-02T15:52:53.864Z,5.50
2023-02-02T15:55:22.998Z,8.13
2023-02-02T15:57:54.248Z,6.50
2023-02-02T16:00:36.176Z,9.63
2023-02-02T16:03:19.457Z,11.17
2023-02-02T16:05:52.033Z,12.90
2023-02-02T16:08:25.429Z,8.90
2023-02-02T16:11:23.671Z,7.47
2023-02-02T16:14:06.891Z,7.03
2023-02-02T16:16:39.898Z,8.07
2023-02-02T16:19:14.425Z,8.57
2023-02-02T16:21:46.893Z,7.90
2023-02-02T16:24:23.238Z,8.20
2023-02-02T16:26:53.379Z,6.63
2023-02-02T16:29:21.516Z,8.63
2023-02-02T16:31:49.948Z,5.20
2023-02-02T16:34:19.531Z,7.37
2023-02-02T16:37:06.363Z,2.60
2023-02-02T16:39:34.014Z,6.40
2023-02-02T16:42:10.906Z,5.40
2023-02-02T16:44:45.940Z,4.03
2023-02-02T16:47:28.409Z,5.27
2023-02-02T16:50:10.142Z,5.13
2023-02-02T16:53:03.187Z,4.20
2023-02-02T16:55:47.990Z,4.00
2023-02-02T16:58:20.724Z,5.97
2023-02-02T17:01:12.276Z,4.90
2023-02-02T17:03:47.968Z,6.07
2023-02-02T17:06:14.993Z,7.30
2023-02-02T17:08:41.936Z,11.23
2023-02-02T17:11:17.602Z,8.17
2023-02-02T17:13:44.751Z,6.90
2023-02-02T17:16:16.353Z,12.33
2023-02-02T17:18:43.661Z,11.07
2023-02-02T17:21:25.072Z,17.83
2023-02-02T17:23:54.444Z,12.40
2023-02-02T17:26:21.575Z,8.90
2023-02-02T17:28:49.355Z,9.57
2023-02-02T17:31:16.871Z,7.60
2023-02-02T17:33:44.295Z,10.10
2023-02-02T17:36:13.282Z,7.97
2023-02-02T17:38:40.741Z,7.17
2023-02-02T17:41:10.482Z,8.93
2023-02-02T17:43:37.380Z,6.50
2023-02-02T17:46:04.674Z,6.53
2023-02-02T17:48:31.627Z,5.50
2023-02-02T17:50:58.494Z,4.73
2023-02-02T17:53:25.355Z,5.57
2023-02-02T17:55:52.421Z,5.17
2023-02-02T17:58:19.666Z,5.70
2023-02-02T18:00:48.657Z,6.83
2023-02-02T18:03:33.995Z,7.83
2023-02-02T18:06:01.933Z,7.27
2023-02-02T18:08:30.153Z,6.20
2023-02-02T18:10:57.403Z,8.77
2023-02-02T18:13:24.668Z,6.00
2023-02-02T18:15:53.067Z,7.07
2023-02-02T18:18:20.025Z,9.87
2023-02-02T18:20:49.432Z,6.13
2023-02-02T18:23:18.234Z,6.27
2023-02-02T18:25:46.147Z,6.73
2023-02-02T18:28:17.580Z,8.17
2023-02-02T18:30:45.538Z,8.30
2023-02-02T18:33:13.963Z,10.53
2023-02-02T18:35:48.078Z,11.47
2023-02-02T18:38:15.288Z,8.77
2023-02-02T18:40:42.661Z,14.37
2023-02-02T18:43:09.865Z,10.00
2023-02-02T18:45:36.936Z,9.77
2023-02-02T18:48:04.082Z,12.03
2023-02-02T18:50:31.160Z,12.67
2023-02-02T18:52:58.113Z,11.30
2023-02-02T18:55:25.643Z,6.73
2023-02-02T18:57:52.854Z,12.33
2023-02-02T19:00:22.116Z,7.23
2023-02-02T19:02:49.452Z,4.70
2023-02-02T19:05:35.061Z,5.13
2023-02-02T19:08:04.090Z,10.30
2023-02-02T19:10:31.454Z,6.53
2023-02-02T19:13:14.765Z,5.03
2023-02-02T19:15:42.492Z,2.27
2023-02-02T19:18:19.861Z,4.77
2023-02-02T19:20:47.793Z,6.20
2023-02-02T19:23:23.800Z,3.10
2023-02-02T19:25:54.144Z,4.17
2023-02-02T19:28:30.708Z,5.93
2023-02-02T19:31:00.057Z,3.97
2023-02-02T19:33:48.673Z,2.70
2023-02-02T19:36:20.811Z,2.90
2023-02-02T19:38:49.916Z,2.50
2023-02-02T19:41:20.754Z,2.20
2023-02-02T19:43:55.987Z,6.17
2023-02-02T19:46:26.248Z,2.67
2023-02-02T19:49:11.501Z,4.87
2023-02-02T19:51:50.621Z,2.73
2023-02-02T19:54:33.136Z,4.50
2023-02-02T19:57:15.763Z,8.73
2023-02-02T19:59:45.451Z,7.63
2023-02-02T20:02:35.307Z,10.30
2023-02-02T20:05:14.774Z,7.17
2023-02-02T20:07:41.685Z,8.03
2023-02-02T20:10:22.196Z,7.13
2023-02-02T20:12:50.140Z,7.30
2023-02-02T20:15:33.972Z,12.57
2023-02-02T20:18:06.330Z,9.43
2023-02-02T20:20:42.055Z,5.27
2023-02-02T20:23:33.623Z,4.50
2023-02-02T20:26:07.347Z,6.73
2023-02-02T20:28:45.540Z,8.80
2023-02-02T20:31:15.778Z,10.10
2023-02-02T20:33:49.757Z,9.07
2023-02-02T20:36:28.536Z,9.30
2023-02-02T20:38:56.011Z,6.60
2023-02-02T20:41:22.871Z,8.73
2023-02-02T20:43:49.914Z,4.47
2023-02-02T20:46:16.871Z,5.70
2023-02-02T20:48:43.847Z,7.93
2023-02-02T20:51:10.747Z,7.23
2023-02-02T20:53:39.500Z,8.70
2023-02-02T20:56:06.646Z,9.37
2023-02-02T20:58:33.531Z,13.60
2023-02-02T21:01:05.397Z,8.53
2023-02-02T21:03:32.771Z,9.57
2023-02-02T21:06:00.223Z,9.00
2023-02-02T21:08:27.066Z,6.00
2023-02-02T21:10:53.933Z,8.23
2023-02-02T21:13:20.957Z,9.30
2023-02-02T21:15:48.435Z,10.13
2023-02-02T21:18:15.337Z,8.90
2023-02-02T21:20:42.213Z,9.03
2023-02-02T21:23:10.371Z,8.93
2023-02-02T21:25:37.344Z,10.30
2023-02-02T21:28:04.359Z,8.60
2023-02-02T21:30:31.532Z,8.93
2023-02-02T21:32:58.912Z,11.47
2023-02-02T21:35:26.975Z,8.67
2023-02-02T21:37:57.489Z,11.63
2023-02-02T21:40:30.416Z,10.63
2023-02-02T21:43:00.088Z,15.27
2023-02-02T21:45:36.018Z,10.67
2023-02-02T21:48:07.168Z,13.70
2023-02-02T21:50:36.925Z,10.53
2023-02-02T21:53:21.681Z,10.73
2023-02-02T21:55:54.503Z,15.33
2023-02-02T21:58:23.003Z,11.97
2023-02-02T22:00:50.612Z,12.20
2023-02-02T22:03:26.870Z,15.27
2023-02-02T22:06:02.784Z,11.53
2023-02-02T22:08:35.736Z,15.43
2023-02-02T22:11:02.678Z,13.33
2023-02-02T22:13:34.852Z,11.63
2023-02-02T22:16:02.396Z,13.53
2023-02-02T22:18:29.890Z,10.53
2023-02-02T22:20:56.900Z,9.30
2023-02-02T22:23:26.616Z,6.63
2023-02-02T22:25:57.882Z,9.27
2023-02-02T22:28:30.009Z,8.60
2023-02-02T22:30:58.559Z,10.93
2023-02-02T22:33:26.667Z,8.23
2023-02-02T22:35:54.119Z,12.03
2023-02-02T22:38:23.100Z,12.10
2023-02-02T22:40:51.528Z,9.33
2023-02-02T22:43:20.078Z,10.97
2023-02-02T22:45:47.495Z,11.43
2023-02-02T22:48:15.554Z,13.47
2023-02-02T22:50:43.206Z,11.10
2023-02-02T22:53:10.465Z,13.80
2023-02-02T22:55:37.547Z,10.00
2023-02-02T22:58:07.240Z,13.67
2023-02-02T23:00:34.315Z,16.73
2023-02-02T23:03:01.152Z,13.97
2023-02-02T23:05:28.572Z,14.63
2023-02-02T23:07:56.253Z,17.67
2023-02-02T23:10:26.086Z,14.23
2023-02-02T23:12:55.063Z,11.20
2023-02-02T23:15:22.596Z,17.07
2023-02-02T23:17:49.595Z,16.23
2023-02-02T23:20:17.415Z,19.73
2023-02-02T23:22:44.422Z,17.27
2023-02-02T23:25:12.617Z,20.63
2023-02-02T23:27:39.905Z,19.63
2023-02-02T23:30:08.879Z,16.77
2023-02-02T23:32:36.121Z,25.27
2023-02-02T23:35:04.231Z,20.37
2023-02-02T23:37:31.752Z,18.63
2023-02-02T23:39:58.587Z,16.50
2023-02-02T23:42:25.934Z,17.70
2023-02-02T23:44:53.211Z,16.47
2023-02-02T23:47:20.288Z,17.00
2023-02-02T23:49:47.437Z,12.80
2023-02-02T23:52:14.812Z,12.93
2023-02-02T23:54:42.227Z,12.13
2023-02-02T23:57:09.462Z,13.13
2023-02-02T23:59:36.494Z,14.93
